Time;durP1;ratioP1;P1;durP2;ratioP2;P2;SDS_P1;SDS_P2;PMS_P1;PMS_P2;Temp;Humidity;BMP_temperature;BMP_pressure;BME280_temperature;BME280_humidity;BME280_pressure;Samples;Min_cycle;Max_cycle;Signal;HPM_P1;HPM_P2
2023/06/28 00:00:45;;;;;;;3.30;2.77;;;16.40;99.90;;;;;;5055733;28;20389;-83
2023/06/28 00:03:13;;;;;;;2.92;2.50;;;16.30;99.90;;;;;;5039491;28;20457;-83
2023/06/28 00:05:39;;;;;;;2.90;2.67;;;16.40;99.90;;;;;;5025106;28;20393;-83
2023/06/28 00:08:05;;;;;;;3.77;2.70;;;16.30;99.90;;;;;;5045195;28;20397;-82
2023/06/28 00:10:30;;;;;;;3.40;2.43;;;16.50;99.90;;;;;;5042078;28;20836;-83
2023/06/28 00:12:56;;;;;;;3.40;2.53;;;16.20;99.90;;;;;;5045322;28;20393;-82
2023/06/28 00:15:21;;;;;;;3.40;2.35;;;16.20;99.90;;;;;;5053354;28;20843;-82
2023/06/28 00:17:47;;;;;;;4.90;2.60;;;16.10;99.90;;;;;;5035274;28;20398;-83
2023/06/28 00:20:13;;;;;;;2.70;2.50;;;16.10;99.90;;;;;;5032272;28;20373;-83
2023/06/28 00:22:39;;;;;;;3.22;2.42;;;16.10;99.90;;;;;;5041191;28;20714;-83
2023/06/28 00:25:05;;;;;;;4.30;2.40;;;16.10;99.90;;;;;;5033798;28;20407;-83
2023/06/28 00:27:31;;;;;;;2.88;2.40;;;16.10;99.90;;;;;;5047433;28;20758;-82
2023/06/28 00:29:57;;;;;;;3.42;2.65;;;16.00;99.90;;;;;;5037441;28;20402;-82
2023/06/28 00:32:27;;;;;;;3.42;2.50;;;16.00;99.90;;;;;;5040745;28;20473;-82
2023/06/28 00:34:52;;;;;;;4.35;2.50;;;16.00;99.90;;;;;;5040969;28;20423;-82
2023/06/28 00:37:18;;;;;;;2.40;2.20;;;15.90;99.90;;;;;;5035587;28;20393;-82
2023/06/28 00:39:44;;;;;;;4.10;2.80;;;15.90;99.90;;;;;;5027749;28;20383;-83
2023/06/28 00:42:09;;;;;;;2.90;2.60;;;15.80;99.90;;;;;;5019682;28;20874;-82
2023/06/28 00:44:37;;;;;;;3.47;2.40;;;15.80;99.90;;;;;;5037379;28;20792;-82
2023/06/28 00:47:04;;;;;;;2.85;2.35;;;15.70;99.90;;;;;;5018402;28;20395;-83
2023/06/28 00:49:32;;;;;;;3.97;2.40;;;15.70;99.90;;;;;;5037878;28;20383;-83
2023/06/28 00:51:59;;;;;;;3.63;2.60;;;15.70;99.90;;;;;;5036178;28;20749;-83
2023/06/28 00:54:25;;;;;;;4.80;2.60;;;15.60;99.90;;;;;;5058082;28;20421;-83
2023/06/28 00:56:52;;;;;;;3.30;2.78;;;15.70;99.90;;;;;;5057313;28;20389;-83
2023/06/28 00:59:18;;;;;;;3.58;2.50;;;15.70;99.90;;;;;;5039805;28;20795;-82
2023/06/28 01:01:44;;;;;;;5.03;2.53;;;15.70;99.90;;;;;;5058128;28;20386;-83
2023/06/28 01:04:13;;;;;;;2.70;2.33;;;15.60;99.90;;;;;;5029147;28;20777;-82
2023/06/28 01:06:40;;;;;;;3.50;2.70;;;15.70;99.90;;;;;;5026172;28;20451;-82
2023/06/28 01:09:10;;;;;;;3.30;2.50;;;15.60;99.90;;;;;;5037211;28;20399;-83
2023/06/28 01:11:36;;;;;;;2.70;2.50;;;15.60;99.90;;;;;;5026114;28;20445;-82
2023/06/28 01:14:03;;;;;;;3.10;2.80;;;15.60;99.90;;;;;;5045282;28;20406;-83
2023/06/28 01:16:29;;;;;;;3.78;2.80;;;15.60;99.90;;;;;;5047739;28;20401;-84
2023/06/28 01:18:55;;;;;;;4.15;2.70;;;15.70;99.90;;;;;;5048587;28;20873;-83
2023/06/28 01:21:25;;;;;;;5.00;2.63;;;15.70;99.90;;;;;;5031816;28;20406;-83
2023/06/28 01:23:51;;;;;;;3.08;2.28;;;15.60;99.90;;;;;;5038603;28;20418;-83
2023/06/28 01:26:17;;;;;;;3.85;2.35;;;15.50;99.90;;;;;;5016650;28;20886;-83
2023/06/28 01:28:44;;;;;;;4.38;2.50;;;15.60;99.90;;;;;;5037951;28;20391;-82
2023/06/28 01:31:11;;;;;;;2.80;2.60;;;15.60;99.90;;;;;;5052538;28;20385;-82
2023/06/28 01:33:38;;;;;;;2.60;2.30;;;15.70;99.90;;;;;;5044033;28;20401;-82
2023/06/28 01:36:03;;;;;;;3.58;2.42;;;15.70;99.90;;;;;;5057682;28;20401;-83
2023/06/28 01:38:31;;;;;;;4.70;2.90;;;15.70;99.90;;;;;;5057672;28;20392;-83
2023/06/28 01:40:58;;;;;;;3.05;2.75;;;15.70;99.90;;;;;;5030769;28;20409;-82
2023/06/28 01:43:23;;;;;;;3.40;2.38;;;15.70;99.90;;;;;;5056726;28;20389;-83
2023/06/28 01:45:50;;;;;;;2.70;2.40;;;15.70;99.90;;;;;;5054955;28;20381;-83
2023/06/28 01:48:17;;;;;;;5.93;3.10;;;15.60;99.90;;;;;;5038293;28;20391;-81
2023/06/28 01:50:43;;;;;;;4.77;2.70;;;15.60;99.90;;;;;;5019419;28;20847;-83
2023/06/28 01:53:08;;;;;;;4.78;2.70;;;15.60;99.90;;;;;;5019310;28;20471;-82
2023/06/28 01:55:34;;;;;;;3.90;2.70;;;15.70;99.90;;;;;;5017594;28;20430;-83
2023/06/28 01:58:00;;;;;;;3.80;2.50;;;15.70;99.90;;;;;;5043156;28;20408;-83
2023/06/28 02:00:26;;;;;;;3.05;2.50;;;15.70;99.90;;;;;;5038112;28;20386;-83
2023/06/28 02:02:52;;;;;;;4.65;2.67;;;15.70;99.90;;;;;;5056657;28;20772;-82
2023/06/28 02:05:18;;;;;;;3.60;3.30;;;15.50;99.90;;;;;;5037309;28;20381;-83
2023/06/28 02:07:44;;;;;;;3.50;2.70;;;15.60;99.90;;;;;;5056313;28;20614;-83
2023/06/28 02:10:10;;;;;;;3.63;3.00;;;15.60;99.90;;;;;;5056193;28;20385;-82
2023/06/28 02:12:36;;;;;;;3.30;2.60;;;15.50;99.90;;;;;;5037765;28;20432;-83
2023/06/28 02:15:02;;;;;;;4.18;2.88;;;15.50;99.90;;;;;;5032481;28;20433;-83
2023/06/28 02:17:30;;;;;;;2.67;2.42;;;15.60;99.90;;;;;;5034935;28;20379;-82
2023/06/28 02:19:56;;;;;;;6.77;3.00;;;15.50;99.90;;;;;;5035161;28;20409;-82
2023/06/28 02:22:22;;;;;;;4.20;2.67;;;15.50;99.90;;;;;;5035686;28;20490;-82
2023/06/28 02:24:47;;;;;;;3.10;2.80;;;15.50;99.90;;;;;;5035151;28;20474;-83
2023/06/28 02:27:13;;;;;;;3.05;2.63;;;15.60;99.90;;;;;;5043900;28;20767;-83
2023/06/28 02:29:39;;;;;;;2.90;2.50;;;15.60;99.90;;;;;;5033877;28;20401;-83
2023/06/28 02:32:04;;;;;;;5.10;2.60;;;15.60;99.90;;;;;;5016424;28;20401;-83
2023/06/28 02:34:30;;;;;;;3.20;2.90;;;15.50;99.90;;;;;;5037363;28;20402;-82
2023/06/28 02:36:56;;;;;;;4.40;3.10;;;15.60;99.90;;;;;;5039818;28;20416;-82
2023/06/28 02:39:22;;;;;;;4.32;3.05;;;15.60;99.90;;;;;;5055921;28;20468;-83
2023/06/28 02:41:48;;;;;;;3.42;2.22;;;15.60;99.90;;;;;;5036876;28;20420;-83
2023/06/28 02:44:14;;;;;;;3.00;2.70;;;15.60;99.90;;;;;;5055357;28;20389;-83
2023/06/28 02:46:40;;;;;;;6.07;2.85;;;15.60;99.90;;;;;;5035825;28;20926;-82
2023/06/28 02:49:06;;;;;;;4.68;2.90;;;15.60;99.90;;;;;;5037172;28;20382;-83
2023/06/28 02:51:32;;;;;;;3.53;2.70;;;15.60;99.90;;;;;;5055070;28;20392;-83
2023/06/28 02:53:58;;;;;;;2.97;2.60;;;15.70;99.90;;;;;;5054311;28;20385;-83
2023/06/28 02:56:23;;;;;;;4.60;2.70;;;15.80;99.90;;;;;;5035368;28;20762;-83
2023/06/28 02:58:49;;;;;;;4.45;2.50;;;15.70;99.90;;;;;;5037054;28;20776;-82
2023/06/28 03:01:15;;;;;;;3.72;2.50;;;15.80;99.90;;;;;;5035780;28;20417;-83
2023/06/28 03:03:41;;;;;;;3.20;2.80;;;15.80;99.90;;;;;;5036288;28;20397;-83
2023/06/28 03:06:06;;;;;;;4.00;2.70;;;15.70;99.90;;;;;;5053783;28;20420;-83
2023/06/28 03:08:32;;;;;;;3.93;2.80;;;15.70;99.90;;;;;;5046416;28;20379;-83
2023/06/28 03:10:59;;;;;;;2.70;2.50;;;15.70;99.90;;;;;;5018797;28;20405;-82
2023/06/28 03:13:24;;;;;;;2.60;2.40;;;15.90;99.90;;;;;;5047290;28;20481;-83
2023/06/28 03:15:50;;;;;;;4.20;2.90;;;15.90;99.90;;;;;;5048750;28;20504;-83
2023/06/28 03:18:16;;;;;;;3.33;2.70;;;15.80;99.90;;;;;;5045751;28;20411;-82
2023/06/28 03:20:41;;;;;;;3.70;3.13;;;16.00;99.90;;;;;;5051485;28;20523;-82
2023/06/28 03:23:07;;;;;;;3.40;2.70;;;16.00;99.90;;;;;;5016859;28;20395;-83
2023/06/28 03:25:32;;;;;;;4.63;2.80;;;16.00;99.90;;;;;;5047435;28;20535;-83
2023/06/28 03:27:58;;;;;;;3.40;2.70;;;16.10;99.90;;;;;;5053765;28;20478;-83
2023/06/28 03:30:23;;;;;;;3.43;2.57;;;16.10;99.90;;;;;;5024773;28;20400;-82
2023/06/28 03:32:49;;;;;;;3.70;2.60;;;16.00;99.90;;;;;;5049671;28;20465;-83
2023/06/28 03:35:15;;;;;;;3.43;2.70;;;16.10;99.90;;;;;;5035632;28;20405;-83
2023/06/28 03:37:55;;;;;;;2.93;2.63;;;16.00;99.90;;;;;;5035639;28;20393;-83
2023/06/28 03:40:21;;;;;;;3.10;2.30;;;16.10;99.90;;;;;;5062541;28;20922;-83
2023/06/28 03:42:48;;;;;;;3.03;2.70;;;16.10;99.90;;;;;;5056603;28;20412;-83
2023/06/28 03:45:14;;;;;;;3.40;2.67;;;16.10;99.90;;;;;;5037782;28;20899;-83
2023/06/28 03:47:40;;;;;;;4.22;2.50;;;16.10;99.90;;;;;;5036227;28;20817;-83
2023/06/28 03:50:06;;;;;;;4.18;2.50;;;16.10;99.90;;;;;;5036355;28;20484;-83
2023/06/28 03:52:32;;;;;;;3.97;2.50;;;16.00;99.90;;;;;;5051665;28;20396;-83
2023/06/28 03:54:57;;;;;;;4.43;2.60;;;16.10;99.90;;;;;;5053776;28;20438;-83
2023/06/28 03:57:23;;;;;;;3.58;2.50;;;16.10;99.90;;;;;;5054944;28;20388;-83
2023/06/28 03:59:48;;;;;;;3.60;2.80;;;16.10;99.90;;;;;;5027522;28;20387;-82
2023/06/28 04:02:14;;;;;;;3.23;2.50;;;16.10;99.90;;;;;;5018713;28;20379;-83
2023/06/28 04:04:40;;;;;;;3.42;2.60;;;16.10;99.90;;;;;;5018527;28;20426;-83
2023/06/28 04:07:05;;;;;;;3.08;2.47;;;16.10;99.90;;;;;;5036327;28;20394;-82
2023/06/28 04:09:31;;;;;;;3.70;2.50;;;16.10;99.90;;;;;;5019154;28;20616;-82
2023/06/28 04:11:57;;;;;;;3.20;2.60;;;16.20;99.90;;;;;;5046729;28;20400;-82
2023/06/28 04:14:24;;;;;;;4.30;2.60;;;16.30;99.90;;;;;;5039049;28;21217;-83
2023/06/28 04:16:50;;;;;;;2.90;2.60;;;16.20;99.90;;;;;;5038116;28;20926;-83
2023/06/28 04:19:16;;;;;;;4.78;2.60;;;16.10;99.90;;;;;;5056702;28;20407;-83
2023/06/28 04:21:41;;;;;;;3.40;2.67;;;16.10;99.90;;;;;;5058445;28;20512;-83
2023/06/28 04:24:07;;;;;;;3.83;2.75;;;16.20;99.90;;;;;;5058587;28;20385;-83
2023/06/28 04:26:32;;;;;;;2.65;2.40;;;16.10;99.90;;;;;;5039539;28;20899;-83
2023/06/28 04:28:58;;;;;;;3.60;2.70;;;16.10;99.90;;;;;;5056955;28;20393;-83
2023/06/28 04:31:24;;;;;;;3.53;2.45;;;16.20;99.90;;;;;;5057549;28;20439;-82
2023/06/28 04:33:51;;;;;;;2.40;2.20;;;16.20;99.90;;;;;;5039699;28;20421;-83
2023/06/28 04:36:21;;;;;;;3.35;2.33;;;16.20;99.90;;;;;;5020401;28;20406;-83
2023/06/28 04:38:52;;;;;;;3.70;2.90;;;16.30;99.90;;;;;;5039576;28;20881;-82
2023/06/28 04:41:19;;;;;;;2.97;2.50;;;16.30;99.90;;;;;;5043493;28;20382;-83
2023/06/28 04:43:45;;;;;;;3.70;2.90;;;16.30;99.90;;;;;;5022124;28;20395;-83
2023/06/28 04:46:11;;;;;;;4.38;2.80;;;16.20;99.90;;;;;;5037408;28;20383;-83
2023/06/28 04:48:39;;;;;;;4.15;2.40;;;16.30;99.90;;;;;;5027857;28;20402;-83
2023/06/28 04:51:04;;;;;;;3.10;2.30;;;16.30;99.90;;;;;;5038295;28;20395;-83
2023/06/28 04:53:30;;;;;;;3.55;2.80;;;16.30;99.90;;;;;;5022097;28;20421;-82
2023/06/28 04:55:55;;;;;;;4.00;2.50;;;16.20;99.90;;;;;;5030146;28;20417;-83
2023/06/28 04:58:22;;;;;;;3.80;2.70;;;16.40;99.90;;;;;;5023353;28;20410;-83
2023/06/28 05:00:47;;;;;;;4.80;3.20;;;16.30;99.90;;;;;;5021282;28;20387;-83
2023/06/28 05:03:15;;;;;;;5.00;2.60;;;16.40;99.90;;;;;;5050692;28;20489;-83
2023/06/28 05:05:40;;;;;;;5.40;3.00;;;16.40;99.90;;;;;;5040265;28;20394;-82
2023/06/28 05:08:07;;;;;;;3.90;2.50;;;16.40;99.90;;;;;;5060586;28;20398;-82
2023/06/28 05:10:33;;;;;;;4.60;2.80;;;16.40;99.90;;;;;;5040678;28;20388;-82
2023/06/28 05:12:59;;;;;;;3.77;2.70;;;16.30;99.90;;;;;;5039829;28;20391;-82
2023/06/28 05:15:25;;;;;;;3.50;2.70;;;16.30;99.90;;;;;;5020398;28;20785;-81
2023/06/28 05:17:51;;;;;;;4.60;2.90;;;16.40;99.90;;;;;;5033040;28;20451;-82
2023/06/28 05:20:17;;;;;;;3.08;2.65;;;16.30;99.90;;;;;;5040467;28;20788;-81
2023/06/28 05:22:49;;;;;;;3.33;2.60;;;16.40;99.90;;;;;;5039416;28;20393;-82
2023/06/28 05:25:15;;;;;;;3.45;3.15;;;16.40;99.90;;;;;;5038749;28;20397;-82
2023/06/28 05:27:41;;;;;;;3.50;2.78;;;16.40;99.90;;;;;;5039557;28;20393;-82
2023/06/28 05:30:09;;;;;;;4.38;2.97;;;16.50;99.90;;;;;;5058486;28;20488;-82
2023/06/28 05:32:34;;;;;;;3.60;2.90;;;16.40;99.90;;;;;;5062012;28;20382;-82
2023/06/28 05:35:02;;;;;;;3.00;2.40;;;16.50;99.90;;;;;;5063573;28;20413;-81
2023/06/28 05:37:28;;;;;;;4.38;2.75;;;16.60;99.90;;;;;;5062864;28;20794;-83
2023/06/28 05:39:54;;;;;;;3.58;2.47;;;16.50;99.90;;;;;;5057767;28;20385;-82
2023/06/28 05:42:21;;;;;;;3.80;2.50;;;16.50;99.90;;;;;;5057895;28;20385;-82
2023/06/28 05:44:47;;;;;;;2.70;2.50;;;16.60;99.90;;;;;;5040134;28;20394;-83
2023/06/28 05:47:12;;;;;;;4.03;2.70;;;16.60;99.90;;;;;;5057383;28;20825;-83
2023/06/28 05:49:39;;;;;;;3.00;2.40;;;16.70;99.90;;;;;;5040756;28;20381;-83
2023/06/28 05:52:05;;;;;;;3.47;2.53;;;16.90;99.90;;;;;;5039074;28;20401;-83
2023/06/28 05:54:31;;;;;;;4.35;2.80;;;17.00;99.90;;;;;;5056869;28;20405;-83
2023/06/28 05:56:57;;;;;;;4.10;2.60;;;17.00;99.90;;;;;;5040360;28;20457;-82
2023/06/28 05:59:23;;;;;;;4.80;2.90;;;17.10;99.90;;;;;;5038173;28;20395;-83
2023/06/28 06:01:48;;;;;;;3.37;2.40;;;17.00;99.90;;;;;;5040206;28;20381;-83
2023/06/28 06:04:14;;;;;;;5.30;2.78;;;17.10;99.90;;;;;;5057107;28;20456;-82
2023/06/28 06:06:39;;;;;;;3.03;2.72;;;17.10;99.90;;;;;;5037692;28;20472;-83
2023/06/28 06:09:05;;;;;;;4.60;2.50;;;17.00;99.90;;;;;;5041261;28;20423;-82
2023/06/28 06:11:30;;;;;;;5.35;2.58;;;17.10;99.90;;;;;;5054407;28;20768;-81
2023/06/28 06:13:56;;;;;;;3.47;2.60;;;17.30;99.90;;;;;;5041701;28;20382;-82
2023/06/28 06:16:21;;;;;;;3.37;2.77;;;17.30;99.90;;;;;;5023784;28;21023;-82
2023/06/28 06:18:47;;;;;;;3.93;2.57;;;17.30;99.90;;;;;;5023950;28;20434;-81
2023/06/28 06:21:12;;;;;;;4.90;2.60;;;17.30;99.90;;;;;;5030953;28;20516;-81
2023/06/28 06:23:38;;;;;;;4.75;2.45;;;17.40;99.90;;;;;;5044437;28;20991;-81
2023/06/28 06:26:03;;;;;;;3.43;2.67;;;17.50;99.90;;;;;;5042673;28;20465;-82
2023/06/28 06:28:29;;;;;;;2.95;2.50;;;17.60;99.90;;;;;;5061495;28;20472;-82
2023/06/28 06:30:54;;;;;;;5.03;2.90;;;17.50;99.90;;;;;;5058720;28;20389;-83
2023/06/28 06:33:20;;;;;;;5.40;3.20;;;17.60;99.90;;;;;;5058092;28;20382;-83
2023/06/28 06:35:45;;;;;;;5.97;3.10;;;17.70;99.90;;;;;;5039136;28;20413;-83
2023/06/28 06:38:11;;;;;;;4.00;3.17;;;17.80;99.90;;;;;;5057935;28;20392;-83
2023/06/28 06:40:36;;;;;;;3.50;3.17;;;17.70;99.90;;;;;;5057734;28;20553;-83
2023/06/28 06:43:02;;;;;;;4.53;3.40;;;17.70;99.90;;;;;;5038770;28;20936;-82
2023/06/28 06:45:27;;;;;;;4.85;2.78;;;17.70;99.90;;;;;;5038706;28;20412;-81
2023/06/28 06:47:53;;;;;;;4.20;3.05;;;17.80;99.90;;;;;;5059723;28;20400;-83
2023/06/28 06:50:18;;;;;;;4.13;2.70;;;17.90;99.90;;;;;;5048662;28;20399;-83
2023/06/28 06:52:44;;;;;;;4.22;2.90;;;17.80;99.90;;;;;;5053768;28;20413;-83
2023/06/28 06:55:10;;;;;;;4.70;3.08;;;18.00;99.90;;;;;;5055784;28;20405;-83
2023/06/28 06:57:36;;;;;;;5.87;2.93;;;18.00;99.90;;;;;;5039394;28;20375;-83
2023/06/28 07:00:03;;;;;;;6.03;3.10;;;18.00;99.90;;;;;;5039711;28;20379;-84
2023/06/28 07:02:29;;;;;;;6.20;3.17;;;18.10;99.90;;;;;;5028845;28;20389;-83
2023/06/28 07:04:54;;;;;;;4.20;2.83;;;18.00;99.90;;;;;;5054380;28;20395;-82
2023/06/28 07:07:20;;;;;;;5.00;3.10;;;18.00;99.90;;;;;;5054826;28;20393;-80
2023/06/28 07:09:45;;;;;;;3.40;2.80;;;18.10;99.90;;;;;;5036381;28;20401;-82
2023/06/28 07:12:11;;;;;;;4.47;2.70;;;18.10;99.90;;;;;;5053966;28;20736;-80
2023/06/28 07:14:36;;;;;;;4.57;2.65;;;18.10;99.90;;;;;;5048660;28;20418;-82
2023/06/28 07:17:02;;;;;;;4.70;2.90;;;18.10;99.90;;;;;;5044041;28;20389;-82
2023/06/28 07:19:27;;;;;;;5.10;2.80;;;18.20;99.90;;;;;;5032514;28;20432;-82
2023/06/28 07:21:53;;;;;;;4.25;3.60;;;18.30;99.90;;;;;;5042255;28;20425;-82
2023/06/28 07:24:18;;;;;;;5.20;2.83;;;18.40;99.90;;;;;;5038192;28;20418;-82
2023/06/28 07:26:44;;;;;;;5.88;3.55;;;18.60;99.90;;;;;;5039975;28;20804;-82
2023/06/28 07:29:09;;;;;;;3.50;2.77;;;18.90;99.90;;;;;;5069726;28;20393;-80
2023/06/28 07:31:35;;;;;;;5.78;3.40;;;18.60;99.90;;;;;;5055660;28;20455;-82
2023/06/28 07:34:04;;;;;;;3.73;2.80;;;18.70;99.90;;;;;;5022172;28;20400;-82
2023/06/28 07:36:32;;;;;;;4.80;3.10;;;18.90;99.90;;;;;;5036637;28;20387;-82
2023/06/28 07:38:58;;;;;;;4.22;2.20;;;19.00;99.90;;;;;;5036674;28;20423;-80
2023/06/28 07:41:24;;;;;;;4.95;3.20;;;19.10;99.90;;;;;;5045877;28;20427;-80
2023/06/28 07:43:49;;;;;;;3.77;2.47;;;19.10;99.90;;;;;;5044951;28;20424;-81
2023/06/28 07:46:16;;;;;;;5.03;2.70;;;19.30;99.90;;;;;;5041022;28;20447;-80
2023/06/28 07:48:42;;;;;;;3.00;2.40;;;19.30;99.90;;;;;;5052643;28;20393;-80
2023/06/28 07:51:08;;;;;;;5.22;2.30;;;19.40;99.90;;;;;;5046569;28;20462;-80
2023/06/28 07:53:33;;;;;;;5.30;2.50;;;19.50;99.90;;;;;;5054108;28;20408;-81
2023/06/28 07:55:59;;;;;;;4.80;2.50;;;19.50;99.90;;;;;;5045861;28;20414;-81
2023/06/28 07:58:25;;;;;;;4.57;2.80;;;19.60;99.90;;;;;;5036841;28;20390;-82
2023/06/28 08:00:51;;;;;;;3.20;2.40;;;19.40;99.90;;;;;;5037293;28;20382;-83
2023/06/28 08:03:17;;;;;;;4.85;2.40;;;19.60;99.90;;;;;;5054489;28;20389;-82
2023/06/28 08:05:44;;;;;;;3.90;1.92;;;19.80;99.90;;;;;;5054937;28;20728;-81
2023/06/28 08:08:09;;;;;;;3.63;2.38;;;19.60;99.90;;;;;;5056586;28;20377;-81
2023/06/28 08:10:35;;;;;;;4.03;2.30;;;19.70;99.90;;;;;;5054236;28;20385;-82
2023/06/28 08:13:00;;;;;;;3.70;2.60;;;19.90;99.90;;;;;;5053395;28;20401;-81
2023/06/28 08:15:26;;;;;;;3.95;2.33;;;20.00;99.90;;;;;;5028485;28;20412;-82
2023/06/28 08:17:51;;;;;;;5.03;2.60;;;20.00;99.90;;;;;;5049046;28;20421;-81
2023/06/28 08:20:17;;;;;;;3.60;2.20;;;20.00;99.90;;;;;;5027569;28;20459;-81
2023/06/28 08:22:43;;;;;;;3.03;2.30;;;19.90;99.90;;;;;;5048694;28;20393;-82
2023/06/28 08:25:09;;;;;;;2.97;2.50;;;20.10;99.90;;;;;;5023377;28;20761;-81
2023/06/28 08:27:35;;;;;;;2.90;2.30;;;20.20;99.90;;;;;;5023717;28;20457;-81
2023/06/28 08:30:01;;;;;;;3.38;2.40;;;20.40;99.90;;;;;;5044497;28;20903;-82
2023/06/28 08:32:27;;;;;;;4.00;2.40;;;20.90;99.90;;;;;;5046018;28;20439;-82
2023/06/28 08:34:52;;;;;;;7.07;2.10;;;20.80;99.90;;;;;;5054115;28;20409;-79
2023/06/28 08:37:18;;;;;;;3.60;2.20;;;20.70;99.90;;;;;;5052958;28;20451;-81
2023/06/28 08:39:43;;;;;;;3.80;2.40;;;20.60;99.90;;;;;;5035319;28;20386;-83
2023/06/28 08:42:09;;;;;;;5.00;2.25;;;20.60;99.90;;;;;;5056222;28;20382;-82
2023/06/28 08:44:38;;;;;;;5.10;2.37;;;20.70;99.90;;;;;;5020961;28;20403;-83
2023/06/28 08:47:05;;;;;;;2.80;2.50;;;20.70;99.90;;;;;;5040580;28;20400;-80
2023/06/28 08:49:31;;;;;;;5.38;2.28;;;21.10;99.90;;;;;;5046754;28;20405;-80
2023/06/28 08:51:57;;;;;;;5.93;2.85;;;21.00;99.90;;;;;;5044167;28;20414;-81
2023/06/28 08:54:27;;;;;;;4.75;2.22;;;21.20;99.90;;;;;;5020585;28;20449;-82
2023/06/28 08:56:56;;;;;;;4.53;2.80;;;21.00;99.90;;;;;;5040968;28;20397;-80
2023/06/28 08:59:22;;;;;;;4.60;2.50;;;21.00;99.90;;;;;;5047876;28;20449;-82
2023/06/28 09:01:48;;;;;;;4.90;2.67;;;20.90;99.90;;;;;;5029033;28;20801;-83
2023/06/28 09:04:13;;;;;;;4.15;2.53;;;21.10;99.90;;;;;;5048594;28;21714;-81
2023/06/28 09:06:39;;;;;;;3.90;2.23;;;21.40;99.90;;;;;;5051252;28;20387;-81
2023/06/28 09:09:05;;;;;;;5.45;2.70;;;21.40;99.90;;;;;;5025592;28;20392;-83
2023/06/28 09:11:31;;;;;;;4.18;2.22;;;21.40;99.90;;;;;;5024594;28;20992;-82
2023/06/28 09:13:57;;;;;;;4.35;2.70;;;21.60;99.90;;;;;;5052065;28;20381;-82
2023/06/28 09:16:23;;;;;;;4.63;2.20;;;21.70;99.90;;;;;;5054706;28;20411;-82
2023/06/28 09:18:49;;;;;;;4.97;2.60;;;21.90;99.90;;;;;;5043330;28;20429;-83
2023/06/28 09:21:28;;;;;;;3.22;2.00;;;21.60;99.90;;;;;;5058894;28;20397;-82
2023/06/28 09:23:54;;;;;;;6.60;2.58;;;21.80;99.90;;;;;;5047381;28;20407;-81
2023/06/28 09:26:21;;;;;;;3.72;2.20;;;21.90;99.90;;;;;;5054916;28;20425;-82
2023/06/28 09:28:48;;;;;;;3.53;2.63;;;22.00;99.90;;;;;;5042923;28;20752;-83
2023/06/28 09:31:18;;;;;;;3.30;2.20;;;22.10;99.90;;;;;;5042414;28;20405;-82
2023/06/28 09:33:44;;;;;;;6.18;2.70;;;21.90;99.90;;;;;;5044701;28;20812;-81
2023/06/28 09:36:10;;;;;;;4.03;2.20;;;21.80;99.90;;;;;;5046975;28;20408;-82
2023/06/28 09:38:43;;;;;;;9.35;2.85;;;21.70;99.90;;;;;;5028680;28;20940;-84
2023/06/28 09:41:09;;;;;;;7.13;2.63;;;21.60;99.90;;;;;;5027989;28;20387;-82
2023/06/28 09:43:35;;;;;;;4.93;2.42;;;21.80;99.90;;;;;;5027734;28;20805;-82
2023/06/28 09:46:18;;;;;;;10.38;2.58;;;21.60;99.90;;;;;;5030339;28;20904;-82
2023/06/28 09:48:47;;;;;;;5.25;2.30;;;21.60;99.90;;;;;;5044589;28;20411;-82
2023/06/28 09:51:15;;;;;;;6.88;2.60;;;21.90;99.90;;;;;;5028011;28;20383;-81
2023/06/28 09:53:56;;;;;;;4.45;2.17;;;21.90;99.90;;;;;;5047897;28;20391;-82
2023/06/28 09:56:41;;;;;;;6.38;2.17;;;21.90;99.90;;;;;;5051600;28;20472;-83
2023/06/28 09:59:08;;;;;;;4.05;2.15;;;21.90;99.90;;;;;;5029662;28;20420;-82
2023/06/28 10:01:38;;;;;;;4.72;2.20;;;21.60;99.90;;;;;;5022495;28;20381;-83
2023/06/28 10:04:07;;;;;;;2.72;2.20;;;22.00;99.90;;;;;;5030491;28;20415;-82
2023/06/28 10:06:35;;;;;;;5.82;2.40;;;22.50;99.90;;;;;;5031633;28;20415;-82
2023/06/28 10:09:00;;;;;;;4.00;2.50;;;22.50;99.90;;;;;;5047914;28;20406;-83
2023/06/28 10:11:30;;;;;;;2.30;1.90;;;22.30;99.90;;;;;;5042119;28;20382;-83
2023/06/28 10:13:57;;;;;;;3.70;1.80;;;22.50;99.90;;;;;;5046681;28;20401;-82
2023/06/28 10:16:26;;;;;;;5.53;2.20;;;22.80;99.90;;;;;;5071018;28;20417;-83
2023/06/28 10:18:52;;;;;;;3.60;2.20;;;22.90;99.90;;;;;;5074876;28;20394;-81
2023/06/28 10:21:18;;;;;;;2.33;1.92;;;22.30;99.90;;;;;;5060425;28;20424;-81
2023/06/28 10:23:44;;;;;;;5.00;2.30;;;22.60;99.90;;;;;;5051810;28;20387;-81
2023/06/28 10:26:12;;;;;;;5.88;2.20;;;22.70;99.90;;;;;;5056572;28;20381;-80
2023/06/28 10:28:41;;;;;;;3.20;2.00;;;22.60;99.90;;;;;;5075404;28;20401;-81
2023/06/28 10:31:07;;;;;;;3.85;2.08;;;22.50;99.90;;;;;;5055714;28;20390;-81
2023/06/28 10:33:36;;;;;;;3.58;2.00;;;22.30;99.90;;;;;;5073355;28;20373;-82
2023/06/28 10:36:03;;;;;;;5.10;1.90;;;22.30;99.90;;;;;;5053953;28;20435;-81
2023/06/28 10:38:34;;;;;;;4.07;2.35;;;22.30;99.90;;;;;;5039131;28;20405;-81
2023/06/28 10:41:06;;;;;;;7.30;2.20;;;22.30;99.90;;;;;;5033806;28;20401;-82
2023/06/28 10:43:32;;;;;;;3.90;2.15;;;22.60;99.90;;;;;;5052343;28;20444;-82
2023/06/28 10:45:58;;;;;;;2.40;2.10;;;22.50;99.90;;;;;;5034537;28;20468;-82
2023/06/28 10:48:26;;;;;;;3.55;2.10;;;22.40;99.90;;;;;;5035186;28;20389;-81
2023/06/28 10:50:57;;;;;;;5.22;2.00;;;22.60;99.90;;;;;;5035186;28;20378;-82
2023/06/28 10:53:25;;;;;;;2.80;1.80;;;22.90;99.90;;;;;;5053834;28;20380;-82
2023/06/28 10:56:11;;;;;;;2.60;2.00;;;24.20;99.90;;;;;;5035806;28;20405;-83
2023/06/28 10:58:40;;;;;;;5.15;2.20;;;22.90;99.90;;;;;;5056011;28;20385;-83
2023/06/28 11:01:11;;;;;;;3.67;2.10;;;22.80;99.90;;;;;;5039312;28;20420;-82
2023/06/28 11:03:44;;;;;;;3.70;2.30;;;22.40;99.90;;;;;;5055156;28;20464;-82
2023/06/28 11:06:13;;;;;;;7.15;2.58;;;22.90;99.90;;;;;;5058310;28;20404;-83
2023/06/28 11:08:41;;;;;;;4.05;2.30;;;23.30;99.90;;;;;;5057841;28;20389;-83
2023/06/28 11:11:21;;;;;;;3.60;2.00;;;23.30;99.90;;;;;;5056327;28;20403;-83
2023/06/28 11:13:50;;;;;;;4.15;2.00;;;23.20;99.90;;;;;;5038427;28;20761;-82
2023/06/28 11:16:23;;;;;;;7.60;2.10;;;23.40;99.90;;;;;;5018825;28;20461;-83
2023/06/28 11:18:50;;;;;;;3.70;2.00;;;23.50;99.90;;;;;;5041322;28;20488;-82
2023/06/28 11:21:21;;;;;;;5.00;2.30;;;24.40;99.90;;;;;;5041484;28;20397;-84
2023/06/28 11:23:47;;;;;;;2.45;1.70;;;23.80;99.90;;;;;;5057844;28;20396;-82
2023/06/28 11:26:18;;;;;;;2.60;2.10;;;23.80;99.90;;;;;;5058265;28;20389;-82
2023/06/28 11:28:53;;;;;;;6.13;2.28;;;23.90;99.90;;;;;;5058635;28;20474;-83
2023/06/28 11:31:23;;;;;;;3.50;1.90;;;24.50;99.90;;;;;;5057500;28;20394;-83
2023/06/28 11:33:54;;;;;;;2.73;1.80;;;24.50;99.90;;;;;;5040234;28;20392;-84
2023/06/28 11:36:24;;;;;;;2.83;1.80;;;24.50;99.90;;;;;;5037014;28;20927;-82
2023/06/28 11:38:50;;;;;;;3.92;2.28;;;23.30;99.90;;;;;;5056280;28;20977;-83
2023/06/28 11:41:16;;;;;;;3.78;1.90;;;24.60;99.90;;;;;;5056744;28;20443;-83
2023/06/28 11:43:46;;;;;;;4.15;1.90;;;24.70;99.90;;;;;;5039950;28;20477;-84
2023/06/28 11:46:22;;;;;;;2.13;1.90;;;25.50;99.90;;;;;;5053840;28;20735;-83
2023/06/28 11:48:51;;;;;;;4.47;1.80;;;26.20;99.90;;;;;;5055512;28;20393;-83
2023/06/28 11:51:17;;;;;;;3.20;1.90;;;26.70;99.90;;;;;;5052571;28;20864;-83
2023/06/28 11:53:48;;;;;;;5.10;2.00;;;27.20;99.90;;;;;;5052204;28;20941;-83
2023/06/28 11:56:14;;;;;;;5.68;1.80;;;27.40;99.90;;;;;;5037214;28;20482;-83
2023/06/28 11:58:40;;;;;;;3.30;2.00;;;27.40;99.90;;;;;;5061536;28;20903;-84
2023/06/28 12:01:06;;;;;;;3.20;1.90;;;28.30;99.90;;;;;;5014616;28;20940;-85
2023/06/28 12:03:36;;;;;;;2.80;2.00;;;27.30;99.90;;;;;;5047391;28;20416;-85
2023/06/28 12:06:04;;;;;;;1.92;1.70;;;27.10;99.90;;;;;;5031675;28;20397;-85
2023/06/28 12:08:38;;;;;;;3.65;2.00;;;28.00;99.90;;;;;;5059161;28;20393;-83
2023/06/28 12:11:14;;;;;;;3.05;1.75;;;28.20;99.90;;;;;;5057037;28;20919;-83
2023/06/28 12:13:40;;;;;;;2.67;1.80;;;28.60;99.90;;;;;;5052911;28;20413;-82
2023/06/28 12:16:17;;;;;;;6.80;2.10;;;28.00;99.90;;;;;;5024475;28;20409;-82
2023/06/28 12:18:59;;;;;;;3.25;2.00;;;27.40;99.90;;;;;;5043306;28;20471;-83
2023/06/28 12:21:26;;;;;;;3.47;1.47;;;27.50;99.90;;;;;;5041534;28;20442;-83
2023/06/28 12:23:52;;;;;;;4.90;2.17;;;27.50;99.90;;;;;;5049585;28;20411;-82
2023/06/28 12:26:20;;;;;;;3.15;2.15;;;26.80;99.90;;;;;;5040499;28;20418;-84
2023/06/28 12:28:50;;;;;;;2.85;1.77;;;26.10;99.90;;;;;;5038391;28;20389;-85
2023/06/28 12:31:16;;;;;;;2.33;1.80;;;27.00;99.90;;;;;;5024909;28;20401;-85
2023/06/28 12:33:42;;;;;;;3.22;2.47;;;27.50;99.90;;;;;;5035723;28;20396;-86
2023/06/28 12:36:18;;;;;;;4.47;2.00;;;27.00;99.90;;;;;;5035412;28;20408;-86
2023/06/28 12:38:44;;;;;;;2.75;2.00;;;28.80;99.90;;;;;;5019929;28;20395;-85
2023/06/28 12:41:15;;;;;;;2.53;1.67;;;28.00;99.90;;;;;;5019966;28;20411;-85
2023/06/28 12:43:41;;;;;;;2.00;1.80;;;28.70;99.90;;;;;;5045967;28;20402;-85
2023/06/28 12:46:15;;;;;;;3.33;2.05;;;28.50;99.90;;;;;;5051152;28;20383;-89